createdAt,value
2023-12-01T00:00:34.032Z,99219.19
2023-12-01T00:03:01.841Z,99220.19
2023-12-01T00:05:29.376Z,99222.81
2023-12-01T00:07:57.270Z,99213.84
2023-12-01T00:10:25.014Z,99220.91
2023-12-01T00:12:52.865Z,99214.28
2023-12-01T00:15:20.638Z,99216.56
2023-12-01T00:17:48.356Z,99223.16
2023-12-01T00:20:15.896Z,99223.25
2023-12-01T00:22:43.738Z,99223.53
2023-12-01T00:25:11.842Z,99224.44
2023-12-01T00:27:39.757Z,99232.88
2023-12-01T00:30:07.912Z,99231.97
2023-12-01T00:32:35.651Z,99225.25
2023-12-01T00:35:03.327Z,99237.75
2023-12-01T00:37:32.453Z,99232.97
2023-12-01T00:40:00.280Z,99222.19
2023-12-01T00:42:27.825Z,99234.94
2023-12-01T00:44:55.659Z,99230.91
2023-12-01T00:47:23.324Z,99230.16
2023-12-01T00:49:50.877Z,99232.88
2023-12-01T00:52:18.675Z,99237.06
2023-12-01T00:54:46.170Z,99222.91
2023-12-01T00:57:13.864Z,99235.78
2023-12-01T00:59:41.504Z,99234.69
2023-12-01T01:02:10.012Z,99237.97
2023-12-01T01:04:37.693Z,99242.31
2023-12-01T01:07:05.614Z,99236.75
2023-12-01T01:09:33.133Z,99236.13
2023-12-01T01:12:02.910Z,99234.31
2023-12-01T01:14:30.798Z,99233.25
2023-12-01T01:16:58.919Z,99246.84
2023-12-01T01:19:26.479Z,99239.13
2023-12-01T01:21:54.164Z,99237.59
2023-12-01T01:24:21.896Z,99242.13
2023-12-01T01:26:49.422Z,99242.03
2023-12-01T01:29:17.193Z,99242.84
2023-12-01T01:31:44.750Z,99245.03
2023-12-01T01:34:12.718Z,99229.63
2023-12-01T01:36:40.290Z,99231.16
2023-12-01T01:39:07.773Z,99226.88
2023-12-01T01:41:35.693Z,99235.31
2023-12-01T01:44:03.239Z,99238.69
2023-12-01T01:48:59.493Z,99240.75
2023-12-01T01:51:28.049Z,99236.31
2023-12-01T01:53:56.239Z,99239.56
2023-12-01T01:56:24.684Z,99231.03
2023-12-01T01:58:52.435Z,99227.59
2023-12-01T02:01:20.504Z,99237.56
2023-12-01T02:03:49.289Z,99224.75
2023-12-01T02:06:16.734Z,99241.38
2023-12-01T02:08:45.611Z,99235.38
2023-12-01T02:11:16.253Z,99237.81
2023-12-01T02:13:44.519Z,99230.31
2023-12-01T02:16:12.117Z,99226.22
2023-12-01T02:18:40.094Z,99243.72
2023-12-01T02:21:07.776Z,99242.81
2023-12-01T02:23:36.690Z,99235.38
2023-12-01T02:26:11.293Z,99240.38
2023-12-01T02:28:39.364Z,99234.66
2023-12-01T02:31:07.090Z,99233.66
2023-12-01T02:33:34.978Z,99232.13
2023-12-01T02:36:04.904Z,99237.19
2023-12-01T02:38:32.711Z,99229.69
2023-12-01T02:41:00.428Z,99224.69
2023-12-01T02:43:28.026Z,99227.13
2023-12-01T02:45:55.973Z,99225.59
2023-12-01T02:48:25.054Z,99228.31
2023-12-01T02:50:52.522Z,99226.41
2023-12-01T02:53:20.087Z,99226.03
2023-12-01T02:55:47.902Z,99226.66
2023-12-01T02:58:15.791Z,99217.34
2023-12-01T03:00:46.237Z,99222.22
2023-12-01T03:05:58.895Z,99221.50
2023-12-01T03:08:26.375Z,99217.22
2023-12-01T03:10:55.107Z,99205.00
2023-12-01T03:13:23.714Z,99217.50
2023-12-01T03:15:51.799Z,99216.78
2023-12-01T03:18:23.873Z,99214.34
2023-12-01T03:20:51.801Z,99220.34
2023-12-01T03:23:19.219Z,99216.97
2023-12-01T03:25:46.751Z,99216.69
2023-12-01T03:28:16.072Z,99217.50
2023-12-01T03:30:44.172Z,99220.66
2023-12-01T03:33:13.783Z,99222.84
2023-12-01T03:35:41.372Z,99214.94
2023-12-01T03:38:08.877Z,99208.94
2023-12-01T03:40:36.325Z,99212.31
2023-12-01T03:43:03.892Z,99219.81
2023-12-01T03:45:31.572Z,99220.66
2023-12-01T03:47:59.130Z,99226.16
2023-12-01T03:50:26.794Z,99212.53
2023-12-01T03:52:54.427Z,99207.47
2023-12-01T03:55:23.261Z,99216.38
2023-12-01T03:57:51.216Z,99205.50
2023-12-01T04:00:20.646Z,99208.56
2023-12-01T04:02:50.130Z,99209.28
2023-12-01T04:05:21.920Z,99214.38
2023-12-01T04:07:55.224Z,99212.19
2023-12-01T04:11:00.083Z,99213.22
2023-12-01T04:14:34.586Z,99210.72
2023-12-01T04:17:46.817Z,99208.66
2023-12-01T04:21:11.751Z,99204.19
2023-12-01T04:27:20.181Z,99210.09
2023-12-01T04:30:20.364Z,99201.94
2023-12-01T04:33:20.654Z,99190.34
2023-12-01T04:39:33.126Z,99198.28
2023-12-01T04:42:03.705Z,99195.38
2023-12-01T04:44:33.239Z,99198.44
2023-12-01T04:48:26.682Z,99203.44
2023-12-01T04:51:00.715Z,99203.44
2023-12-01T04:53:54.548Z,99202.00
2023-12-01T04:56:22.845Z,99190.03
2023-12-01T04:58:51.267Z,99195.00
2023-12-01T05:01:18.774Z,99202.41
2023-12-01T05:03:46.305Z,99189.63
2023-12-01T05:06:13.927Z,99194.72
2023-12-01T05:08:41.374Z,99193.91
2023-12-01T05:11:08.847Z,99203.97
2023-12-01T05:13:36.330Z,99196.53
2023-12-01T05:16:06.011Z,99199.16
2023-12-01T05:18:33.498Z,99187.88
2023-12-01T05:21:00.913Z,99190.25
2023-12-01T05:23:28.371Z,99179.16
2023-12-01T05:25:55.802Z,99178.06
2023-12-01T05:28:23.350Z,99176.03
2023-12-01T05:30:50.886Z,99178.28
2023-12-01T05:33:18.508Z,99172.28
2023-12-01T05:35:47.440Z,99167.50
2023-12-01T05:38:17.639Z,99176.56
2023-12-01T05:40:45.519Z,99172.91
2023-12-01T05:43:14.500Z,99167.84
2023-12-01T05:45:42.148Z,99174.31
2023-12-01T05:48:10.619Z,99174.25
2023-12-01T05:50:43.302Z,99184.22
2023-12-01T05:53:12.436Z,99172.09
2023-12-01T05:55:40.054Z,99180.78
2023-12-01T05:58:13.326Z,99179.22
2023-12-01T06:00:42.911Z,99190.13
2023-12-01T06:03:12.562Z,99179.75
2023-12-01T06:05:41.534Z,99187.25
2023-12-01T06:08:12.760Z,99170.28
2023-12-01T06:10:41.050Z,99184.44
2023-12-01T06:13:09.155Z,99182.81
2023-12-01T06:15:36.967Z,99184.44
2023-12-01T06:18:05.111Z,99180.97
2023-12-01T06:20:33.431Z,99178.13
2023-12-01T06:23:03.334Z,99184.66
2023-12-01T06:25:34.269Z,99175.69
2023-12-01T06:28:04.362Z,99168.47
2023-12-01T06:30:37.833Z,99171.41
2023-12-01T06:33:10.498Z,99173.16
2023-12-01T06:35:38.626Z,99174.47
2023-12-01T06:38:06.937Z,99174.78
2023-12-01T06:40:35.174Z,99159.59
2023-12-01T06:43:13.550Z,99162.16
2023-12-01T06:45:44.309Z,99164.31
2023-12-01T06:48:13.563Z,99164.31
2023-12-01T06:50:41.124Z,99166.94
2023-12-01T06:53:08.900Z,99167.44
2023-12-01T06:55:37.478Z,99161.97
2023-12-01T06:58:05.101Z,99161.97
2023-12-01T07:00:38.254Z,99166.22
2023-12-01T07:03:09.589Z,99169.00
2023-12-01T07:05:39.232Z,99159.31
2023-12-01T07:08:13.367Z,99149.03
2023-12-01T07:10:41.366Z,99157.69
2023-12-01T07:13:09.130Z,99165.41
2023-12-01T07:15:38.592Z,99159.03
2023-12-01T07:18:07.091Z,99159.22
2023-12-01T07:20:34.993Z,99156.34
2023-12-01T07:23:04.830Z,99159.63
2023-12-01T07:25:34.445Z,99157.59
2023-12-01T07:28:04.453Z,99153.00
2023-12-01T07:30:32.278Z,99156.75
2023-12-01T07:33:01.986Z,99153.78
2023-12-01T07:35:30.070Z,99141.66
2023-12-01T07:37:57.615Z,99142.47
2023-12-01T07:40:26.335Z,99131.47
2023-12-01T07:42:59.408Z,99139.72
2023-12-01T07:45:27.575Z,99145.31
2023-12-01T07:47:57.102Z,99143.69
2023-12-01T07:50:29.066Z,99131.78
2023-12-01T07:52:57.485Z,99139.00
2023-12-01T07:55:25.582Z,99132.50
2023-12-01T07:57:53.535Z,99135.16
2023-12-01T08:00:21.093Z,99136.78
2023-12-01T08:02:54.385Z,99129.16
2023-12-01T08:05:24.680Z,99127.59
2023-12-01T08:07:54.747Z,99130.66
2023-12-01T08:10:25.407Z,99126.34
2023-12-01T08:12:58.432Z,99117.81
2023-12-01T08:15:29.182Z,99110.06
2023-12-01T08:17:59.118Z,99102.28
2023-12-01T08:20:30.084Z,99102.53
2023-12-01T08:22:58.840Z,99109.88
2023-12-01T08:25:27.547Z,99117.03
2023-12-01T08:27:55.810Z,99115.59
2023-12-01T08:30:26.628Z,99111.53
2023-12-01T08:32:56.002Z,99110.72
2023-12-01T08:35:24.035Z,99107.03
2023-12-01T08:37:54.830Z,99099.69
2023-12-01T08:40:23.605Z,99095.78
2023-12-01T08:42:54.958Z,99086.81
2023-12-01T08:45:23.121Z,99081.50
2023-12-01T08:47:53.178Z,99086.41
2023-12-01T08:50:21.319Z,99083.50
2023-12-01T08:52:49.622Z,99087.34
2023-12-01T08:55:17.360Z,99087.75
2023-12-01T08:57:44.971Z,99084.16
2023-12-01T09:00:15.770Z,99085.09
2023-12-01T09:02:43.367Z,99080.47
2023-12-01T09:05:11.438Z,99074.81
2023-12-01T09:07:39.378Z,99065.56
2023-12-01T09:10:07.378Z,99065.19
2023-12-01T09:12:35.634Z,99066.81
2023-12-01T09:15:03.411Z,99055.25
2023-12-01T09:17:32.030Z,99064.13
2023-12-01T09:19:59.794Z,99058.38
2023-12-01T09:22:27.604Z,99063.03
2023-12-01T09:24:55.216Z,99058.72
2023-12-01T09:27:22.813Z,99062.91
2023-12-01T09:29:50.479Z,99062.78
2023-12-01T09:32:21.277Z,99056.28
2023-12-01T09:34:49.099Z,99058.13
2023-12-01T09:37:16.842Z,99049.00
2023-12-01T09:39:46.404Z,99054.66
2023-12-01T09:42:16.076Z,99048.63
2023-12-01T09:44:44.336Z,99045.06
2023-12-01T09:47:18.296Z,99043.09
2023-12-01T09:49:49.559Z,99036.13
2023-12-01T09:52:17.682Z,99024.34
2023-12-01T09:55:06.737Z,99014.59
2023-12-01T09:57:32.928Z,99016.31
2023-12-01T10:00:01.132Z,99009.94
2023-12-01T10:02:32.165Z,99017.03
2023-12-01T10:05:02.509Z,99006.13
2023-12-01T10:07:31.776Z,98996.16
2023-12-01T10:09:59.504Z,98994.53
2023-12-01T10:12:27.059Z,98996.28
2023-12-01T10:14:56.028Z,98991.84
2023-12-01T10:17:29.182Z,98989.53
2023-12-01T10:19:56.909Z,98985.59
2023-12-01T10:22:25.760Z,98977.25
2023-12-01T10:25:05.298Z,98968.91
2023-12-01T10:27:33.641Z,98969.47
2023-12-01T10:30:12.663Z,98964.28
2023-12-01T10:32:41.858Z,98966.34
2023-12-01T10:35:09.726Z,98966.34
2023-12-01T10:37:38.597Z,98956.16
2023-12-01T10:40:09.793Z,98954.28
2023-12-01T10:42:37.698Z,98950.56
2023-12-01T10:45:05.882Z,98947.78
2023-12-01T10:47:34.841Z,98951.75
2023-12-01T10:50:03.623Z,98949.88
2023-12-01T10:52:35.890Z,98946.41
2023-12-01T10:55:05.734Z,98948.03
2023-12-01T10:57:42.040Z,98933.44
2023-12-01T11:00:21.180Z,98940.16
2023-12-01T11:02:52.415Z,98940.84
2023-12-01T11:05:20.588Z,98934.84
2023-12-01T11:08:17.106Z,98929.81
2023-12-01T11:11:08.902Z,98924.59
2023-12-01T11:13:46.907Z,98923.00
2023-12-01T11:16:15.191Z,98924.28
2023-12-01T11:18:45.928Z,98918.34
2023-12-01T11:21:18.308Z,98916.50
2023-12-01T11:23:45.914Z,98916.38
2023-12-01T11:26:13.672Z,98920.44
2023-12-01T11:28:44.155Z,98910.13
2023-12-01T11:31:35.838Z,98908.16
2023-12-01T11:34:10.341Z,98904.56
2023-12-01T11:36:38.305Z,98899.47
2023-12-01T11:39:15.839Z,98901.22
2023-12-01T11:41:47.795Z,98891.38
2023-12-01T11:44:38.724Z,98889.97
2023-12-01T11:47:09.137Z,98887.56
2023-12-01T11:49:40.421Z,98891.94
2023-12-01T11:52:16.238Z,98888.22
2023-12-01T11:54:44.561Z,98894.00
2023-12-01T11:57:15.567Z,98886.16
2023-12-01T11:59:43.359Z,98880.13
2023-12-01T12:02:11.193Z,98872.72
2023-12-01T12:04:39.648Z,98876.66
2023-12-01T12:07:07.738Z,98879.41
2023-12-01T12:09:37.210Z,98875.47
2023-12-01T12:12:11.283Z,98872.34
2023-12-01T12:14:40.241Z,98874.31
2023-12-01T12:17:08.541Z,98865.03
2023-12-01T12:19:50.988Z,98868.84
2023-12-01T12:22:23.152Z,98860.16
2023-12-01T12:24:52.131Z,98855.75
2023-12-01T12:27:20.543Z,98852.97
2023-12-01T12:29:50.966Z,98847.41
2023-12-01T12:32:19.098Z,98851.44
2023-12-01T12:34:46.764Z,98848.53
2023-12-01T12:37:14.781Z,98854.66
2023-12-01T12:39:46.043Z,98847.03
2023-12-01T12:42:17.818Z,98838.38
2023-12-01T12:44:47.377Z,98835.69
2023-12-01T12:47:16.272Z,98834.88
2023-12-01T12:49:44.773Z,98832.78
2023-12-01T12:52:12.964Z,98828.63
2023-12-01T12:54:44.252Z,98817.75
2023-12-01T12:57:12.218Z,98818.75
2023-12-01T12:59:39.980Z,98806.59
2023-12-01T13:02:08.156Z,98802.22
2023-12-01T13:04:36.034Z,98807.88
2023-12-01T13:07:04.064Z,98805.25
2023-12-01T13:09:31.554Z,98802.22
2023-12-01T13:11:59.720Z,98803.25
2023-12-01T13:14:27.312Z,98802.88
2023-12-01T13:16:56.661Z,98801.91
2023-12-01T13:19:25.813Z,98801.69
2023-12-01T13:21:56.229Z,98802.25
2023-12-01T13:24:26.825Z,98789.59
2023-12-01T13:26:55.852Z,98795.50
2023-12-01T13:29:23.456Z,98795.41
2023-12-01T13:31:51.517Z,98794.50
2023-12-01T13:34:19.682Z,98781.66
2023-12-01T13:36:49.611Z,98780.25
2023-12-01T13:39:18.070Z,98774.47
2023-12-01T13:41:46.469Z,98774.56
2023-12-01T13:44:14.031Z,98761.75
2023-12-01T13:46:41.730Z,98762.31
2023-12-01T13:49:10.132Z,98752.84
2023-12-01T13:51:37.767Z,98755.28
2023-12-01T13:54:05.957Z,98758.44
2023-12-01T13:56:33.756Z,98757.38
2023-12-01T13:59:01.159Z,98757.63
2023-12-01T14:01:29.067Z,98744.91
2023-12-01T14:03:56.922Z,98745.59
2023-12-01T14:06:24.628Z,98749.63
2023-12-01T14:08:52.165Z,98741.09
2023-12-01T14:11:19.975Z,98742.00
2023-12-01T14:13:47.487Z,98734.16
2023-12-01T14:16:15.848Z,98730.91
2023-12-01T14:18:43.953Z,98730.31
2023-12-01T14:21:11.591Z,98729.84
2023-12-01T14:23:39.218Z,98715.13
2023-12-01T14:26:07.499Z,98722.28
2023-12-01T14:28:36.239Z,98719.06
2023-12-01T14:31:04.463Z,98713.97
2023-12-01T14:33:32.920Z,98707.28
2023-12-01T14:36:01.173Z,98709.81
2023-12-01T14:38:28.918Z,98713.06
2023-12-01T14:40:56.453Z,98701.72
2023-12-01T14:43:24.074Z,98702.66
2023-12-01T14:45:51.583Z,98701.03
2023-12-01T14:48:19.215Z,98698.59
2023-12-01T14:50:51.216Z,98700.34
2023-12-01T14:53:19.762Z,98696.88
2023-12-01T14:55:47.863Z,98694.44
2023-12-01T14:58:15.659Z,98684.25
2023-12-01T15:00:43.578Z,98689.22
2023-12-01T15:03:11.366Z,98680.56
2023-12-01T15:05:38.961Z,98690.63
2023-12-01T15:08:06.584Z,98686.00
2023-12-01T15:10:34.075Z,98684.84
2023-12-01T15:13:01.572Z,98689.03
2023-12-01T15:15:29.205Z,98677.03
2023-12-01T15:17:56.900Z,98677.03
2023-12-01T15:20:24.562Z,98672.03
2023-12-01T15:22:52.162Z,98668.00
2023-12-01T15:25:19.846Z,98659.53
2023-12-01T15:27:47.317Z,98656.88
2023-12-01T15:30:15.227Z,98650.88
2023-12-01T15:32:42.854Z,98651.66
2023-12-01T15:35:10.511Z,98651.56
2023-12-01T15:37:38.789Z,98651.34
2023-12-01T15:40:06.963Z,98637.47
2023-12-01T15:42:34.508Z,98644.16
2023-12-01T15:45:02.172Z,98636.44
2023-12-01T15:47:32.604Z,98642.31
2023-12-01T15:50:00.374Z,98638.84
2023-12-01T15:52:27.905Z,98621.81
2023-12-01T15:54:55.504Z,98630.06
2023-12-01T15:57:23.637Z,98627.16
2023-12-01T15:59:51.118Z,98620.34
2023-12-01T16:02:21.556Z,98621.25
2023-12-01T16:04:49.325Z,98620.47
2023-12-01T16:07:16.851Z,98619.88
2023-12-01T16:09:44.475Z,98606.94
2023-12-01T16:12:12.896Z,98602.75
2023-12-01T16:14:40.898Z,98603.81
2023-12-01T16:17:12.322Z,98605.53
2023-12-01T16:19:42.578Z,98597.66
2023-12-01T16:22:11.272Z,98589.94
2023-12-01T16:24:40.692Z,98588.44
2023-12-01T16:27:08.225Z,98593.75
2023-12-01T16:29:35.723Z,98586.78
2023-12-01T16:32:03.231Z,98588.44
2023-12-01T16:34:30.711Z,98581.94
2023-12-01T16:36:58.232Z,98588.75
2023-12-01T16:39:26.352Z,98575.94
2023-12-01T16:41:54.724Z,98582.41
2023-12-01T16:44:22.441Z,98576.97
2023-12-01T16:46:50.009Z,98575.00
2023-12-01T16:49:17.765Z,98579.88
2023-12-01T16:51:45.275Z,98575.69
2023-12-01T16:54:13.273Z,98572.09
2023-12-01T16:56:40.804Z,98575.22
2023-12-01T16:59:08.229Z,98568.50
2023-12-01T17:01:35.675Z,98568.50
2023-12-01T17:04:03.306Z,98563.66
2023-12-01T17:06:30.874Z,98558.13
2023-12-01T17:09:00.300Z,98559.97
2023-12-01T17:11:28.359Z,98563.22
2023-12-01T17:13:56.068Z,98552.56
2023-12-01T17:16:23.509Z,98546.44
2023-12-01T17:18:51.422Z,98543.06
2023-12-01T17:21:19.072Z,98541.34
2023-12-01T17:23:46.811Z,98543.53
2023-12-01T17:26:14.478Z,98533.38
2023-12-01T17:28:42.231Z,98537.84
2023-12-01T17:31:10.795Z,98543.75
2023-12-01T17:33:38.492Z,98539.50
2023-12-01T17:36:06.471Z,98529.09
2023-12-01T17:38:33.913Z,98535.91
2023-12-01T17:41:01.648Z,98525.06
2023-12-01T17:43:29.457Z,98536.84
2023-12-01T17:45:56.970Z,98525.06
2023-12-01T17:48:24.516Z,98524.13
2023-12-01T17:50:52.198Z,98520.06
2023-12-01T17:53:19.796Z,98516.03
2023-12-01T17:55:47.585Z,98518.34
2023-12-01T17:58:15.177Z,98510.72
2023-12-01T18:00:42.612Z,98511.41
2023-12-01T18:03:10.112Z,98506.31
2023-12-01T18:05:37.646Z,98504.72
2023-12-01T18:08:05.324Z,98498.00
2023-12-01T18:10:32.933Z,98513.25
2023-12-01T18:13:00.702Z,98504.00
2023-12-01T18:15:28.196Z,98499.16
2023-12-01T18:17:55.699Z,98501.56
2023-12-01T18:20:25.784Z,98501.81
2023-12-01T18:22:53.387Z,98499.16
2023-12-01T18:25:20.805Z,98498.00
2023-12-01T18:27:50.761Z,98497.06
2023-12-01T18:30:20.366Z,98492.91
2023-12-01T18:32:48.141Z,98497.28
2023-12-01T18:35:16.214Z,98493.84
2023-12-01T18:37:43.974Z,98488.84
2023-12-01T18:40:12.313Z,98489.66
2023-12-01T18:42:39.849Z,98498.69
2023-12-01T18:45:07.917Z,98493.13
2023-12-01T18:47:36.991Z,98493.69
2023-12-01T18:50:05.179Z,98494.50
2023-12-01T18:52:32.801Z,98489.28
2023-12-01T18:55:00.227Z,98485.94
2023-12-01T18:57:27.817Z,98469.97
2023-12-01T18:59:55.370Z,98474.84
2023-12-01T19:02:23.120Z,98471.47
2023-12-01T19:04:50.637Z,98465.25
2023-12-01T19:07:18.121Z,98475.06
2023-12-01T19:09:45.661Z,98481.78
2023-12-01T19:12:13.214Z,98477.25
2023-12-01T19:14:40.637Z,98479.81
2023-12-01T19:17:08.132Z,98477.94
2023-12-01T19:19:35.671Z,98483.72
2023-12-01T19:22:05.001Z,98475.41
2023-12-01T19:24:32.505Z,98480.63
2023-12-01T19:27:00.034Z,98480.84
2023-12-01T19:29:27.508Z,98481.09
2023-12-01T19:31:55.022Z,98490.56
2023-12-01T19:34:22.551Z,98500.06
2023-12-01T19:36:50.125Z,98493.47
2023-12-01T19:39:17.737Z,98489.88
2023-12-01T19:41:45.729Z,98496.94
2023-12-01T19:44:13.485Z,98496.69
2023-12-01T19:46:40.950Z,98499.13
2023-12-01T19:49:08.553Z,98494.72
2023-12-01T19:51:39.356Z,98493.94
2023-12-01T19:54:06.990Z,98493.94
2023-12-01T19:56:35.629Z,98498.22
2023-12-01T19:59:03.114Z,98495.66
2023-12-01T20:01:31.307Z,98491.50
2023-12-01T20:03:58.846Z,98494.72
2023-12-01T20:06:26.455Z,98497.16
2023-12-01T20:08:54.113Z,98495.28
2023-12-01T20:11:21.648Z,98498.44
2023-12-01T20:13:49.167Z,98494.25
2023-12-01T20:16:16.745Z,98493.56
2023-12-01T20:18:44.629Z,98491.28
2023-12-01T20:21:12.185Z,98488.94
2023-12-01T20:23:39.745Z,98494.97
2023-12-01T20:26:07.379Z,98491.50
2023-12-01T20:28:36.797Z,98499.94
2023-12-01T20:31:07.284Z,98510.25
2023-12-01T20:33:34.851Z,98497.16
2023-12-01T20:36:02.550Z,98496.84
2023-12-01T20:38:30.188Z,98500.31
2023-12-01T20:40:58.437Z,98499.31
2023-12-01T20:43:25.881Z,98498.94
2023-12-01T20:45:53.357Z,98490.75
2023-12-01T20:48:21.153Z,98503.34
2023-12-01T20:50:48.722Z,98504.72
2023-12-01T20:53:16.246Z,98506.22
2023-12-01T20:55:45.989Z,98512.09
2023-12-01T20:58:13.753Z,98504.38
2023-12-01T21:00:41.227Z,98506.34
2023-12-01T21:03:08.836Z,98503.56
2023-12-01T21:05:36.451Z,98507.50
2023-12-01T21:08:04.056Z,98508.88
2023-12-01T21:10:31.556Z,98507.84
2023-12-01T21:12:59.015Z,98514.41
2023-12-01T21:15:26.605Z,98513.50
2023-12-01T21:17:54.081Z,98510.72
2023-12-01T21:20:23.626Z,98514.50
2023-12-01T21:22:52.905Z,98520.16
2023-12-01T21:25:20.382Z,98525.03
2023-12-01T21:27:47.914Z,98529.06
2023-12-01T21:30:15.712Z,98530.44
2023-12-01T21:32:43.241Z,98521.09
2023-12-01T21:35:10.833Z,98531.00
2023-12-01T21:37:38.531Z,98530.91
2023-12-01T21:40:06.656Z,98529.84
2023-12-01T21:42:34.201Z,98532.19
2023-12-01T21:45:01.799Z,98531.03
2023-12-01T21:47:31.569Z,98533.31
2023-12-01T21:49:59.185Z,98539.78
2023-12-01T21:52:26.749Z,98531.19
2023-12-01T21:54:54.267Z,98543.72
2023-12-01T21:57:21.777Z,98535.00
2023-12-01T21:59:49.474Z,98536.38
2023-12-01T22:02:19.242Z,98536.63
2023-12-01T22:04:46.696Z,98539.31
2023-12-01T22:07:14.287Z,98544.97
2023-12-01T22:09:41.851Z,98543.91
2023-12-01T22:12:09.376Z,98547.13
2023-12-01T22:14:37.525Z,98545.28
2023-12-01T22:17:04.926Z,98540.19
2023-12-01T22:19:32.756Z,98540.09
2023-12-01T22:22:00.522Z,98538.34
2023-12-01T22:24:29.810Z,98527.59
2023-12-01T22:26:57.477Z,98538.72
2023-12-01T22:29:25.514Z,98532.94
2023-12-01T22:31:52.985Z,98535.34
2023-12-01T22:34:20.660Z,98543.22
2023-12-01T22:36:48.467Z,98551.09
2023-12-01T22:39:16.184Z,98547.88
2023-12-01T22:41:45.718Z,98544.41
2023-12-01T22:44:13.547Z,98547.16
2023-12-01T22:46:40.966Z,98546.72
2023-12-01T22:49:09.347Z,98554.50
2023-12-01T22:51:37.118Z,98556.47
2023-12-01T22:54:04.873Z,98554.28
2023-12-01T22:56:32.530Z,98559.50
2023-12-01T22:59:00.163Z,98563.06
2023-12-01T23:01:27.828Z,98573.38
2023-12-01T23:03:55.731Z,98569.31
2023-12-01T23:06:23.536Z,98562.84
2023-12-01T23:08:54.204Z,98568.88
2023-12-01T23:11:23.279Z,98578.22
2023-12-01T23:13:50.961Z,98579.38
2023-12-01T23:16:18.665Z,98588.75
2023-12-01T23:18:46.401Z,98592.13
2023-12-01T23:21:14.053Z,98605.19
2023-12-01T23:23:42.123Z,98601.81
2023-12-01T23:26:09.713Z,98603.69
2023-12-01T23:28:37.351Z,98599.53
2023-12-01T23:31:05.894Z,98610.41
2023-12-01T23:33:33.531Z,98607.84
2023-12-01T23:36:01.044Z,98610.28
2023-12-01T23:38:29.210Z,98618.03
2023-12-01T23:40:56.726Z,98611.78
2023-12-01T23:43:24.183Z,98610.88
2023-12-01T23:45:51.607Z,98617.09
2023-12-01T23:48:19.287Z,98621.38
2023-12-01T23:50:46.910Z,98632.00
2023-12-01T23:53:14.437Z,98632.94
2023-12-01T23:55:42.063Z,98633.19
2023-12-01T23:58:09.740Z,98654.22
